SBSP/CGH METAR and TAF weather

Enter ICAO airport designator
Station Type Date Time Source
SBSP METAR 2020/04/02 01:00 UTC NOAA

SBSP 020100Z 14006KT 080V160 9999 OVC011 21/17 Q1020


Station Type Date Time Source
SBSP Decoded METAR 2020/04/02 01:00 UTC NOAA

Sao Paulo/Congonhas Aeroporto, Brazil (SBSP) 23-37S 046-39W 802M
Apr 01, 2020 - 09:00 PM EDT / 2020.04.02 0100 UTC
Wind: from the SE (140 degrees) at 7 MPH (6 KT) (direction variable):0
Visibility: greater than 7 mile(s):0
Sky conditions: overcast
Temperature: 69 F (21 C)
Dew Point: 62 F (17 C)
Relative Humidity: 77%
Pressure (altimeter): 30.12 in. Hg (1020 hPa)
ob: SBSP 020100Z 14006KT 080V160 9999 OVC011 21/17 Q1020
cycle: 1

Station Type Date Time Source
SBSP TAF 2020/04/02 00:03 UTC NOAA

TAF TAF SBSP 012016Z 0200/0212 15006KT 8000 BKN010TN17/0209Z TX19/0211Z
BECMG 0200/0202 CAVOK PROB30 0204/0210 4000 BR FEW005 BKN009
RMK PHM

Example: see airport list